createdAt,value
2022-10-21T00:00:37.804Z,97913.3
2022-10-21T00:06:20.538Z,97910.4
2022-10-21T00:11:59.360Z,97916.1
2022-10-21T00:17:35.255Z,97901.9
2022-10-21T00:23:19.601Z,97886.4
2022-10-21T00:28:56.125Z,97878.2
2022-10-21T00:34:32.103Z,97880.8
2022-10-21T00:40:13.916Z,97885.8
2022-10-21T00:45:48.817Z,97893.3
2022-10-21T00:51:23.927Z,97888
2022-10-21T00:56:58.922Z,97890
2022-10-21T01:02:39.321Z,97890
2022-10-21T01:08:14.194Z,97901.6
2022-10-21T01:13:49.151Z,97898.7
2022-10-21T01:19:24.186Z,97910.6
2022-10-21T01:24:58.995Z,97904.3
2022-10-21T01:30:34.798Z,97911.4
2022-10-21T01:36:17.578Z,97891.8
2022-10-21T01:41:53.363Z,97888.2
2022-10-21T01:47:54.804Z,97897.9
2022-10-21T01:53:33.853Z,97888.1
2022-10-21T01:59:08.516Z,97874.6
2022-10-21T02:04:43.535Z,97876
2022-10-21T02:10:27.740Z,97870.7
2022-10-21T02:16:07.781Z,97863.9
2022-10-21T02:21:52.812Z,97856.5
2022-10-21T02:27:28.822Z,97839.4
2022-10-21T02:33:17.390Z,97841.5
2022-10-21T02:39:00.010Z,97849.5
2022-10-21T02:44:56.194Z,97849.9
2022-10-21T02:50:39.004Z,97836.4
2022-10-21T02:58:30.600Z,97841
2022-10-21T03:04:06.222Z,97835.4
2022-10-21T03:10:26.168Z,97856
2022-10-21T03:16:01.110Z,97846
2022-10-21T03:21:42.209Z,97839.7
2022-10-21T03:27:17.094Z,97839.1
2022-10-21T03:32:57.304Z,97841
2022-10-21T03:38:57.358Z,97840
2022-10-21T03:44:32.483Z,97858.7
2022-10-21T03:50:19.244Z,97863.1
2022-10-21T03:56:06.280Z,97891
2022-10-21T04:01:54.213Z,97889
2022-10-21T04:07:30.251Z,97879.9
2022-10-21T04:13:13.450Z,97880.2
2022-10-21T04:18:49.386Z,97868.4
2022-10-21T04:24:28.145Z,97874
2022-10-21T04:30:10.341Z,97891.5
2022-10-21T04:35:45.243Z,97894.4
2022-10-21T04:41:28.997Z,97901.8
2022-10-21T04:47:10.875Z,97900.7
2022-10-21T04:52:49.953Z,97907.9
2022-10-21T04:58:31.586Z,97897.3
2022-10-21T05:04:29.816Z,97892.5
2022-10-21T05:10:13.841Z,97912.3
2022-10-21T05:15:54.332Z,97912.5
2022-10-21T05:21:38.055Z,97905.6
2022-10-21T05:27:14.291Z,97911.8
2022-10-21T05:32:49.531Z,97912.4
2022-10-21T05:38:25.473Z,97914.1
2022-10-21T05:44:08.632Z,97890.6
2022-10-21T05:49:54.061Z,97912
2022-10-21T05:55:33.180Z,97907.5
2022-10-21T06:01:09.651Z,97910
2022-10-21T06:07:11.035Z,97924.5
2022-10-21T06:12:50.708Z,97935.7
2022-10-21T06:18:25.897Z,97921.9
2022-10-21T06:24:28.084Z,97932.8
2022-10-21T06:30:31.831Z,97942.9
2022-10-21T06:36:06.592Z,97948.1
2022-10-21T06:41:41.420Z,97945.9
2022-10-21T06:47:16.375Z,97951.7
2022-10-21T06:52:52.205Z,97958.1
2022-10-21T06:58:27.406Z,97968.6
2022-10-21T07:04:02.447Z,97986.1
2022-10-21T07:09:37.834Z,97981.8
2022-10-21T07:15:22.828Z,97991.4
2022-10-21T07:20:58.014Z,97990.9
2022-10-21T07:26:34.094Z,97996.4
2022-10-21T07:32:09.446Z,98005.2
2022-10-21T07:37:49.943Z,98009.3
2022-10-21T07:43:27.623Z,98003.1
2022-10-21T07:49:02.469Z,97996.3
2022-10-21T07:54:47.116Z,97995
2022-10-21T08:00:30.942Z,97998.7
2022-10-21T08:06:13.518Z,97993.8
2022-10-21T08:11:56.178Z,98010.6
2022-10-21T08:17:30.903Z,98009.3
2022-10-21T08:23:05.694Z,98012.1
2022-10-21T08:28:49.685Z,98012.8
2022-10-21T08:34:25.775Z,98012
2022-10-21T08:40:00.500Z,98021.4
2022-10-21T08:45:35.642Z,98038.3
2022-10-21T08:51:11.535Z,98039.6
2022-10-21T08:56:55.402Z,98033.5
2022-10-21T09:02:33.864Z,98037.6
2022-10-21T09:08:18.092Z,98047.8
2022-10-21T09:14:46.249Z,98053.5
2022-10-21T09:20:33.468Z,98056.4
2022-10-21T09:26:13.544Z,98059.3
2022-10-21T09:32:02.884Z,98047.9
2022-10-21T09:37:39.670Z,98036.4
2022-10-21T09:43:16.685Z,98038.3
2022-10-21T09:50:08.011Z,98034.2
2022-10-21T09:55:46.715Z,98028.7
2022-10-21T10:01:34.086Z,98042.4
2022-10-21T10:07:12.714Z,98020.6
2022-10-21T10:12:47.564Z,98015.2
2022-10-21T10:18:22.657Z,98019.8
2022-10-21T10:24:35.478Z,98049.5
2022-10-21T10:30:27.702Z,98062.9
2022-10-21T10:36:10.066Z,98067.3
2022-10-21T10:41:53.996Z,98070.5
2022-10-21T10:47:33.474Z,98068.6
2022-10-21T10:53:08.980Z,98078.5
2022-10-21T10:58:48.055Z,98062.2
2022-10-21T11:04:30.611Z,98052.2
2022-10-21T11:10:10.279Z,98087.3
2022-10-21T11:15:57.797Z,98070
2022-10-21T11:21:52.348Z,98082.4
2022-10-21T11:27:29.631Z,98080.6
2022-10-21T11:33:12.863Z,98071.7
2022-10-21T11:38:48.279Z,98061
2022-10-21T11:44:30.364Z,98040
2022-10-21T11:50:11.121Z,98028.3
2022-10-21T11:55:46.965Z,98030.4
2022-10-21T12:01:22.163Z,98029.9
2022-10-21T12:06:57.284Z,98039.5
2022-10-21T12:12:33.067Z,98019.1
2022-10-21T12:18:16.049Z,98014
2022-10-21T12:24:00.108Z,98021.7
2022-10-21T12:29:43.734Z,98026.8
2022-10-21T12:35:19.162Z,98022.7
2022-10-21T12:40:54.349Z,98035.2
2022-10-21T12:46:40.796Z,98038.2
2022-10-21T12:52:15.710Z,98025.8
2022-10-21T12:59:21.804Z,98023.3
2022-10-21T13:05:19.043Z,98036.6
2022-10-21T13:10:53.958Z,98028.3
2022-10-21T13:16:28.672Z,98029.3
2022-10-21T13:22:41.535Z,98027.4
2022-10-21T13:28:20.268Z,98041.6
2022-10-21T13:34:06.108Z,98023.1
2022-10-21T13:40:02.101Z,98028.1
2022-10-21T13:45:39.165Z,98045.2
2022-10-21T13:51:17.860Z,98033.8
2022-10-21T13:57:14.137Z,98031.7
2022-10-21T14:02:48.978Z,98036.1
2022-10-21T14:08:37.211Z,98049
2022-10-21T14:15:08.998Z,98046.2
2022-10-21T14:20:54.231Z,98042
2022-10-21T14:26:49.392Z,98022.8
2022-10-21T14:32:27.954Z,98031
2022-10-21T14:38:02.954Z,98026.1
2022-10-21T14:43:44.515Z,98039.7
2022-10-21T14:49:33.669Z,98046.6
2022-10-21T14:55:10.431Z,98062.8
2022-10-21T15:00:46.115Z,98063.4
2022-10-21T15:06:53.908Z,98067
2022-10-21T15:12:29.193Z,98067.8
2022-10-21T15:18:20.975Z,98061.7
2022-10-21T15:23:56.048Z,98011.8
2022-10-21T15:29:31.208Z,98023.3
2022-10-21T15:35:06.029Z,98063.9
2022-10-21T15:40:40.610Z,98036.8
2022-10-21T15:46:20.312Z,97998.9
2022-10-21T15:52:04.773Z,98008.9
2022-10-21T15:57:41.057Z,98032.4
2022-10-21T16:03:17.234Z,98021.6
2022-10-21T16:08:55.995Z,98024.7
2022-10-21T16:14:31.985Z,98057.6
2022-10-21T16:20:11.813Z,98050.9
2022-10-21T16:25:46.925Z,98059.1
2022-10-21T16:33:31.715Z,98082.7
2022-10-21T16:39:08.604Z,98101.5
2022-10-21T16:44:44.846Z,98130.8
2022-10-21T16:50:19.894Z,98146.4
2022-10-21T16:55:55.264Z,98179.2
2022-10-21T17:01:38.425Z,98155.3
2022-10-21T17:07:15.534Z,98114.8
2022-10-21T17:12:52.781Z,98123.7
2022-10-21T17:18:33.977Z,98067.5
2022-10-21T17:24:14.311Z,98019.8
2022-10-21T17:29:50.741Z,98026.9
2022-10-21T17:35:26.319Z,98029.6
2022-10-21T17:41:05.583Z,98063.4
2022-10-21T17:46:44.134Z,98080.9
2022-10-21T17:52:25.580Z,98087
2022-10-21T17:58:02.717Z,98098.1
2022-10-21T18:03:39.798Z,98115.4
2022-10-21T18:09:15.423Z,98146.2
2022-10-21T18:14:58.390Z,98149.7
2022-10-21T18:20:39.683Z,98156.9
2022-10-21T18:26:15.436Z,98154
2022-10-21T18:31:50.449Z,98152
2022-10-21T18:37:49.576Z,98146.4
2022-10-21T18:43:29.837Z,98138.5
2022-10-21T18:49:04.773Z,98125.9
2022-10-21T18:54:42.134Z,98137
2022-10-21T19:00:28.469Z,98081.2
2022-10-21T19:06:11.151Z,98093.8
2022-10-21T19:11:46.459Z,98100.1
2022-10-21T19:17:24.230Z,98099
2022-10-21T19:23:04.797Z,98089.1
2022-10-21T19:28:49.432Z,98089.2
2022-10-21T19:34:47.057Z,98072.3
2022-10-21T19:40:22.002Z,98108.9
2022-10-21T19:45:56.948Z,98113
2022-10-21T19:51:32.805Z,98113.1
2022-10-21T19:57:19.511Z,98109.3
2022-10-21T20:02:58.391Z,98119.4
2022-10-21T20:08:38.128Z,98116.8
2022-10-21T20:14:14.082Z,98111.7
2022-10-21T20:19:50.109Z,98101.8
2022-10-21T20:25:29.792Z,98108
2022-10-21T20:31:13.555Z,98123.7
2022-10-21T20:36:56.915Z,98158.3
2022-10-21T20:42:38.681Z,98176.1
2022-10-21T20:48:23.667Z,98167.9
2022-10-21T20:53:58.537Z,98178.6
2022-10-21T20:59:33.457Z,98172.7
2022-10-21T21:05:09.470Z,98196.8
2022-10-21T21:10:44.566Z,98199.5
2022-10-21T21:16:20.356Z,98208.2
2022-10-21T21:21:55.278Z,98209.4
2022-10-21T21:27:30.949Z,98201.7
2022-10-21T21:33:06.944Z,98220.7
2022-10-21T21:38:41.947Z,98221.6
2022-10-21T21:44:16.870Z,98223.9
2022-10-21T21:49:52.005Z,98227
2022-10-21T21:55:27.094Z,98235.8
2022-10-21T22:01:02.724Z,98239.5
2022-10-21T22:06:39.243Z,98231.3
2022-10-21T22:12:17.824Z,98227.3
2022-10-21T22:17:58.126Z,98228.8
2022-10-21T22:23:32.914Z,98226
2022-10-21T22:29:08.857Z,98222.1
2022-10-21T22:34:43.671Z,98225.8
2022-10-21T22:40:18.747Z,98226.5
2022-10-21T22:46:21.924Z,98225.4
2022-10-21T22:52:10.598Z,98236.5
2022-10-21T22:57:45.451Z,98231.1
2022-10-21T23:03:23.755Z,98238.5
2022-10-21T23:08:59.148Z,98231.9
2022-10-21T23:14:34.687Z,98227.2
2022-10-21T23:20:09.557Z,98242.8
2022-10-21T23:25:44.638Z,98229.5
2022-10-21T23:31:27.472Z,98245.6
2022-10-21T23:37:02.243Z,98247
2022-10-21T23:42:43.565Z,98239.1
2022-10-21T23:48:18.319Z,98248.9
2022-10-21T23:53:53.277Z,98251.4
2022-10-21T23:59:30.110Z,98245
